Pagina principală
METAR-TAF:

METAR-TAF

Aeroporturi :

Hobart, Oklahoma, Statele Unite ale Americii

Latitudine: 34-59-22N, longitudine: 099-03-09W, elevație: 476 m

Observații meteo curente

Raportul a fost făcut în urmă cu 18 de minute, la 21:53 UTC
Vânt 13 kt de la Vest/Sud-vest
Temperatură 37°C
Umiditate 35%
Presiune 1014 hPa
Vizibilitate: 16.1 km
Nori puțini la o înălțime de 7500 picior

METAR: KHBR 222153Z AUTO 24013KT 10SM FEW075 37/19 A2995 RMK AO2 SLP119 T03670189

Ora: 17:11 (22:11 UTC)


TAF: lipsă

Observații și prognoze meteo pentru peste 4.000 de aeroporturi (rapoarte METAR și TAF).

Stațiile disponibile sunt reprezentate pe hartă prin puncte galbene și roșii.

Țineți indicatorul mouse-ului pe punctul dorit pentru a vedea denumirea stației.

Apoi, faceți clic pentru a vedea observațiile și prognozele meteorologice.

Pentru a schimba harta: Pentru mărire, faceți clic pe butoanele verzi cu cruce neagră; pentru micșorare, pe butonul verde cu o liniuță; pentru hărți învecinate, pe săgețile verzi.


METAR-TAF: